createdAt,value
2023-09-04T00:01:07.309Z,101955.41
2023-09-04T00:05:08.992Z,101959.47
2023-09-04T00:09:10.301Z,101959.78
2023-09-04T00:13:13.670Z,101962.00
2023-09-04T00:17:15.013Z,101957.78
2023-09-04T00:21:16.836Z,101952.34
2023-09-04T00:25:18.231Z,101950.38
2023-09-04T00:29:21.134Z,101951.34
2023-09-04T00:33:22.736Z,101942.50
2023-09-04T00:37:24.084Z,101942.44
2023-09-04T00:41:25.568Z,101941.91
2023-09-04T00:45:26.928Z,101938.25
2023-09-04T00:49:29.751Z,101936.25
2023-09-04T00:53:31.406Z,101942.13
2023-09-04T00:57:35.394Z,101943.78
2023-09-04T01:01:37.021Z,101941.69
2023-09-04T01:05:38.372Z,101943.38
2023-09-04T01:09:39.738Z,101943.22
2023-09-04T01:14:19.006Z,101930.00
2023-09-04T01:18:20.641Z,101923.53
2023-09-04T01:22:22.160Z,101915.28
2023-09-04T01:26:36.238Z,101917.91
2023-09-04T01:30:59.408Z,101912.72
2023-09-04T01:35:01.769Z,101911.75
2023-09-04T01:39:04.564Z,101917.69
2023-09-04T01:43:05.920Z,101918.38
2023-09-04T01:47:07.338Z,101906.31
2023-09-04T01:51:08.667Z,101905.03
2023-09-04T01:55:10.053Z,101908.69
2023-09-04T01:59:11.444Z,101902.41
2023-09-04T02:03:15.382Z,101902.75
2023-09-04T02:07:17.498Z,101904.88
2023-09-04T02:11:18.852Z,101918.31
2023-09-04T02:15:20.166Z,101911.03
2023-09-04T02:19:21.526Z,101909.03
2023-09-04T02:23:22.886Z,101905.69
2023-09-04T02:27:24.232Z,101897.53
2023-09-04T02:31:25.646Z,101908.97
2023-09-04T02:35:27.015Z,101912.97
2023-09-04T02:39:28.358Z,101905.94
2023-09-04T02:43:29.712Z,101906.94
2023-09-04T02:47:31.086Z,101898.97
2023-09-04T02:51:34.648Z,101893.72
2023-09-04T02:55:36.000Z,101895.84
2023-09-04T02:59:37.458Z,101893.75
2023-09-04T03:03:38.968Z,101903.38
2023-09-04T03:07:40.396Z,101904.28
2023-09-04T03:11:41.809Z,101909.75
2023-09-04T03:15:43.193Z,101912.25
2023-09-04T03:19:44.569Z,101919.94
2023-09-04T03:23:48.987Z,101917.00
2023-09-04T03:27:50.382Z,101924.94
2023-09-04T03:31:52.724Z,101925.78
2023-09-04T03:35:54.116Z,101918.72
2023-09-04T03:39:55.413Z,101918.44
2023-09-04T03:43:56.801Z,101906.19
2023-09-04T03:47:58.311Z,101897.38
2023-09-04T03:52:01.019Z,101890.22
2023-09-04T03:56:04.117Z,101889.25
2023-09-04T04:00:15.712Z,101895.38
2023-09-04T04:04:17.174Z,101896.13
2023-09-04T04:08:18.599Z,101886.97
2023-09-04T04:12:19.947Z,101884.91
2023-09-04T04:16:21.468Z,101891.16
2023-09-04T04:20:23.350Z,101906.41
2023-09-04T04:24:24.735Z,101901.59
2023-09-04T04:28:26.958Z,101899.06
2023-09-04T04:32:29.009Z,101902.34
2023-09-04T04:36:31.195Z,101897.69
2023-09-04T04:40:32.642Z,101903.78
2023-09-04T04:44:33.960Z,101896.72
2023-09-04T04:48:35.296Z,101903.75
2023-09-04T04:52:37.030Z,101906.78
2023-09-04T04:56:38.523Z,101910.47
2023-09-04T05:00:40.192Z,101913.47
2023-09-04T05:04:46.774Z,101917.59
2023-09-04T05:08:48.209Z,101920.00
2023-09-04T05:12:49.525Z,101921.16
2023-09-04T05:16:50.951Z,101920.41
2023-09-04T05:20:52.312Z,101927.78
2023-09-04T05:24:53.622Z,101921.53
2023-09-04T05:28:55.303Z,101925.78
2023-09-04T05:32:56.684Z,101926.25
2023-09-04T05:37:13.240Z,101935.44
2023-09-04T05:41:17.747Z,101928.94
2023-09-04T05:45:20.951Z,101920.13
2023-09-04T05:49:25.368Z,101912.78
2023-09-04T05:53:30.158Z,101907.09
2023-09-04T05:57:32.276Z,101905.41
2023-09-04T06:01:38.307Z,101897.09
2023-09-04T06:05:42.817Z,101906.31
2023-09-04T06:09:46.872Z,101891.50
2023-09-04T06:13:49.929Z,101896.72
2023-09-04T06:17:51.305Z,101891.50
2023-09-04T06:21:52.716Z,101900.25
2023-09-04T06:25:54.140Z,101905.03
2023-09-04T06:29:55.445Z,101899.75
2023-09-04T06:33:56.829Z,101897.38
2023-09-04T06:37:58.597Z,101892.28
2023-09-04T06:41:59.957Z,101885.47
2023-09-04T06:46:02.977Z,101885.47
2023-09-04T06:50:04.742Z,101881.66
2023-09-04T06:54:06.166Z,101876.13
2023-09-04T06:58:07.525Z,101879.91
2023-09-04T07:02:10.052Z,101883.69
2023-09-04T07:06:11.452Z,101870.00
2023-09-04T07:10:13.112Z,101865.03
2023-09-04T07:14:14.490Z,101872.53
2023-09-04T07:18:15.877Z,101874.56
2023-09-04T07:22:17.324Z,101871.75
2023-09-04T07:26:18.653Z,101863.25
2023-09-04T07:30:19.983Z,101866.00
2023-09-04T07:34:21.335Z,101862.56
2023-09-04T07:38:22.727Z,101867.63
2023-09-04T07:42:24.538Z,101867.94
2023-09-04T07:46:25.881Z,101870.91
2023-09-04T07:50:27.210Z,101866.22
2023-09-04T07:54:28.572Z,101868.69
2023-09-04T07:58:29.950Z,101859.41
2023-09-04T08:02:31.306Z,101867.31
2023-09-04T08:06:32.872Z,101853.91
2023-09-04T08:10:34.262Z,101852.72
2023-09-04T08:14:37.251Z,101852.88
2023-09-04T08:18:38.676Z,101849.63
2023-09-04T08:22:40.065Z,101852.66
2023-09-04T08:26:41.402Z,101858.19
2023-09-04T08:30:42.766Z,101861.94
2023-09-04T08:34:44.123Z,101856.03
2023-09-04T08:38:46.169Z,101858.59
2023-09-04T08:42:50.091Z,101853.22
2023-09-04T08:46:52.344Z,101837.84
2023-09-04T08:50:53.872Z,101847.25
2023-09-04T08:54:55.795Z,101847.69
2023-09-04T08:58:57.281Z,101843.53
2023-09-04T09:03:02.577Z,101843.38
2023-09-04T09:07:05.704Z,101845.50
2023-09-04T09:11:16.434Z,101830.47
2023-09-04T09:15:18.589Z,101836.97
2023-09-04T09:19:23.887Z,101839.28
2023-09-04T09:23:25.581Z,101828.59
2023-09-04T09:27:32.264Z,101821.81
2023-09-04T09:31:33.911Z,101831.66
2023-09-04T09:35:35.744Z,101837.31
2023-09-04T09:39:39.949Z,101826.41
2023-09-04T09:43:44.332Z,101824.06
2023-09-04T09:47:46.772Z,101816.31
2023-09-04T09:51:53.041Z,101820.50
2023-09-04T09:55:54.901Z,101799.53
2023-09-04T10:00:01.004Z,101797.63
2023-09-04T10:04:09.567Z,101789.59
2023-09-04T10:08:34.114Z,101768.72
2023-09-04T10:12:44.776Z,101773.41
2023-09-04T10:16:56.923Z,101761.50
2023-09-04T10:21:00.197Z,101763.47
2023-09-04T10:25:09.797Z,101766.31
2023-09-04T10:29:18.711Z,101764.50
2023-09-04T10:33:23.045Z,101767.25
2023-09-04T10:37:28.084Z,101773.94
2023-09-04T10:41:31.710Z,101755.63
2023-09-04T10:45:33.569Z,101761.06
2023-09-04T10:49:35.169Z,101768.03
2023-09-04T10:53:36.609Z,101756.69
2023-09-04T10:58:03.096Z,101764.13
2023-09-04T11:02:25.892Z,101747.56
2023-09-04T11:06:27.239Z,101744.34
2023-09-04T11:10:37.353Z,101745.34
2023-09-04T11:14:46.368Z,101737.69
2023-09-04T11:18:47.903Z,101734.56
2023-09-04T11:22:49.652Z,101728.53
2023-09-04T11:26:51.022Z,101724.44
2023-09-04T11:30:59.801Z,101708.19
2023-09-04T11:40:16.927Z,101708.72
2023-09-04T11:44:18.368Z,101708.06
2023-09-04T11:48:19.804Z,101698.44
2023-09-04T11:52:28.382Z,101702.00
2023-09-04T11:56:29.942Z,101694.38
2023-09-04T12:00:31.412Z,101682.56
2023-09-04T12:04:33.265Z,101673.25
2023-09-04T12:08:34.702Z,101665.78
2023-09-04T12:12:36.131Z,101672.28
2023-09-04T12:16:37.739Z,101671.78
2023-09-04T12:20:44.890Z,101662.81
2023-09-04T12:25:09.029Z,101670.25
2023-09-04T12:29:11.765Z,101665.97
2023-09-04T12:33:14.441Z,101657.56
2023-09-04T12:37:15.776Z,101658.16
2023-09-04T12:41:17.109Z,101650.25
2023-09-04T12:45:18.513Z,101645.28
2023-09-04T12:49:20.162Z,101636.38
2023-09-04T12:53:21.628Z,101633.03
2023-09-04T12:57:22.951Z,101633.19
2023-09-04T13:01:24.389Z,101626.34
2023-09-04T13:05:26.178Z,101617.75
2023-09-04T13:09:27.936Z,101615.97
2023-09-04T13:13:29.766Z,101607.03
2023-09-04T13:17:31.867Z,101605.34
2023-09-04T13:21:33.370Z,101600.53
2023-09-04T13:25:34.961Z,101608.69
2023-09-04T13:29:36.307Z,101597.03
2023-09-04T13:33:38.544Z,101591.56
2023-09-04T13:37:39.906Z,101592.41
2023-09-04T13:41:41.274Z,101589.50
2023-09-04T13:45:42.591Z,101581.19
2023-09-04T13:49:46.040Z,101571.50
2023-09-04T13:53:47.377Z,101579.09
2023-09-04T13:57:51.476Z,101576.19
2023-09-04T14:01:52.915Z,101563.72
2023-09-04T14:05:54.456Z,101563.25
2023-09-04T14:09:56.060Z,101547.47
2023-09-04T14:13:57.590Z,101546.66
2023-09-04T14:17:59.056Z,101550.16
2023-09-04T14:22:00.545Z,101540.00
2023-09-04T14:26:02.038Z,101522.53
2023-09-04T14:30:03.905Z,101534.41
2023-09-04T14:34:05.215Z,101532.25
2023-09-04T14:38:07.253Z,101534.16
2023-09-04T14:42:09.055Z,101537.69
2023-09-04T14:46:10.943Z,101524.53
2023-09-04T14:50:12.469Z,101519.41
2023-09-04T14:54:13.861Z,101518.78
2023-09-04T14:58:15.200Z,101505.03
2023-09-04T15:02:16.628Z,101503.97
2023-09-04T15:06:18.430Z,101500.66
2023-09-04T15:10:19.960Z,101499.19
2023-09-04T15:14:21.431Z,101507.13
2023-09-04T15:18:23.193Z,101493.19
2023-09-04T15:22:24.780Z,101483.59
2023-09-04T15:26:26.146Z,101479.63
2023-09-04T15:30:28.746Z,101478.81
2023-09-04T15:34:30.456Z,101467.38
2023-09-04T15:38:35.321Z,101472.28
2023-09-04T15:42:37.052Z,101471.25
2023-09-04T15:46:38.670Z,101470.41
2023-09-04T15:50:40.372Z,101457.94
2023-09-04T15:54:41.782Z,101461.28
2023-09-04T15:58:43.143Z,101458.84
2023-09-04T16:02:44.636Z,101454.66
2023-09-04T16:06:46.099Z,101460.25
2023-09-04T16:10:48.980Z,101455.16
2023-09-04T16:14:50.475Z,101450.47
2023-09-04T16:18:51.891Z,101448.78
2023-09-04T16:22:53.304Z,101458.38
2023-09-04T16:26:54.717Z,101449.84
2023-09-04T16:30:56.953Z,101443.00
2023-09-04T16:34:58.434Z,101438.47
2023-09-04T16:39:00.549Z,101439.94
2023-09-04T16:43:01.900Z,101435.09
2023-09-04T16:47:03.348Z,101439.78
2023-09-04T16:51:04.671Z,101435.75
2023-09-04T16:55:07.698Z,101428.72
2023-09-04T16:59:10.382Z,101433.31
2023-09-04T17:03:14.710Z,101423.94
2023-09-04T17:07:16.479Z,101428.53
2023-09-04T17:11:17.832Z,101425.63
2023-09-04T17:15:20.014Z,101421.03
2023-09-04T17:19:21.408Z,101417.31
2023-09-04T17:23:22.782Z,101428.94
2023-09-04T17:27:24.178Z,101426.03
2023-09-04T17:31:25.552Z,101424.34
2023-09-04T17:35:26.992Z,101435.31
2023-09-04T17:39:30.243Z,101434.28
2023-09-04T17:43:31.643Z,101436.38
2023-09-04T17:47:33.591Z,101441.09
2023-09-04T17:51:35.017Z,101447.47
2023-09-04T17:55:36.357Z,101440.16
2023-09-04T17:59:37.751Z,101444.00
2023-09-04T18:03:39.300Z,101436.88
2023-09-04T18:07:40.824Z,101445.81
2023-09-04T18:11:42.157Z,101446.38
2023-09-04T18:15:43.605Z,101444.69
2023-09-04T18:19:44.994Z,101444.00
2023-09-04T18:23:46.392Z,101448.94
2023-09-04T18:27:49.055Z,101445.78
2023-09-04T18:31:50.435Z,101442.94
2023-09-04T18:35:53.496Z,101437.53
2023-09-04T18:39:55.885Z,101443.91
2023-09-04T18:43:57.198Z,101446.47
2023-09-04T18:47:58.620Z,101456.13
2023-09-04T18:52:00.017Z,101461.47
2023-09-04T18:56:01.392Z,101454.47
2023-09-04T19:00:08.000Z,101450.44
2023-09-04T19:04:09.428Z,101449.78
2023-09-04T19:08:10.788Z,101447.00
2023-09-04T19:12:12.266Z,101447.56
2023-09-04T19:16:14.919Z,101429.72
2023-09-04T19:20:16.393Z,101436.19
2023-09-04T19:24:17.764Z,101439.19
2023-09-04T19:28:19.126Z,101432.19
2023-09-04T19:32:20.448Z,101432.50
2023-09-04T19:36:21.861Z,101428.78
2023-09-04T19:40:23.430Z,101429.75
2023-09-04T19:44:24.768Z,101425.78
2023-09-04T19:48:26.291Z,101423.16
2023-09-04T19:52:27.929Z,101416.78
2023-09-04T19:56:30.362Z,101421.06
2023-09-04T20:00:34.353Z,101419.91
2023-09-04T20:04:35.725Z,101416.50
2023-09-04T20:08:44.610Z,101416.38
2023-09-04T20:12:45.952Z,101415.06
2023-09-04T20:16:47.392Z,101421.72
2023-09-04T20:20:48.729Z,101406.16
2023-09-04T20:24:50.712Z,101416.50
2023-09-04T20:28:57.097Z,101422.31
2023-09-04T20:33:10.831Z,101417.00
2023-09-04T20:37:12.302Z,101413.13
2023-09-04T20:41:13.708Z,101423.56
2023-09-04T20:45:15.112Z,101417.63
2023-09-04T20:49:16.593Z,101409.16
2023-09-04T20:53:17.986Z,101399.78
2023-09-04T20:57:19.443Z,101398.66
2023-09-04T21:01:21.188Z,101399.72
2023-09-04T21:05:22.745Z,101397.34
2023-09-04T21:09:24.082Z,101396.03
2023-09-04T21:13:44.179Z,101391.59
2023-09-04T21:18:04.289Z,101390.56
2023-09-04T21:22:24.037Z,101394.81
2023-09-04T21:26:43.898Z,101389.44
2023-09-04T21:31:03.880Z,101386.69
2023-09-04T21:35:24.098Z,101387.97
2023-09-04T21:39:44.279Z,101390.28
2023-09-04T21:44:04.542Z,101389.66
2023-09-04T21:48:24.301Z,101385.00
2023-09-04T21:52:44.402Z,101372.44
2023-09-04T21:57:04.158Z,101377.09
2023-09-04T22:01:24.040Z,101372.47
2023-09-04T22:05:44.043Z,101359.69
2023-09-04T22:10:05.937Z,101360.91
2023-09-04T22:14:25.907Z,101361.13
2023-09-04T22:18:48.471Z,101357.75
2023-09-04T22:23:08.824Z,101352.34
2023-09-04T22:27:28.603Z,101350.75
2023-09-04T22:31:48.463Z,101344.09
2023-09-04T22:36:08.345Z,101339.75
2023-09-04T22:40:28.613Z,101337.25
2023-09-04T22:44:48.769Z,101330.28
2023-09-04T22:49:09.812Z,101331.97
2023-09-04T22:53:29.795Z,101325.97
2023-09-04T22:57:50.093Z,101334.00
2023-09-04T23:02:09.981Z,101328.97
2023-09-04T23:06:29.873Z,101319.97
2023-09-04T23:10:49.729Z,101319.50
2023-09-04T23:15:09.488Z,101321.50
2023-09-04T23:19:29.547Z,101306.25
2023-09-04T23:23:45.808Z,101310.97
2023-09-04T23:27:51.854Z,101311.63
2023-09-04T23:32:00.218Z,101316.31
2023-09-04T23:36:16.123Z,101321.34
2023-09-04T23:40:36.266Z,101312.97
2023-09-04T23:44:56.270Z,101306.31
2023-09-04T23:48:57.620Z,101305.47
2023-09-04T23:52:59.073Z,101310.13
2023-09-04T23:57:00.956Z,101311.31
